CheckWX is a tool to help pilots better visualize weather data.  It is not intended as a substitute for an official pre-flight weather briefing.

09:15:44 UTC

EPPO METAR
Poznań-Ławica Airport
Poznań, Poland
Current

16 mins ago

EPPO 250900Z 12014KT CAVOK 26/11 Q1024
Observed
Aug-25 @ 09:00 UTC
Wind
  • 120° at 14 KTS
Visibility
10,000+ meters
Flight Rules
VFR
Cloud Levels
  • Clear skies
Temperature
26°C / 79°F
Dewpoint
11°C / 52°F
Humidity
39%
Altimeter
30.24" Hg
Pressure
1023.92 hPa
Previous

46 mins ago

EPPO 250830Z 11011KT CAVOK 25/12 Q1024
Observed
Aug-25 @ 08:30 UTC
Wind
  • 110° at 11 KTS
Visibility
10,000+ meters
Flight Rules
VFR
Cloud Levels
  • Clear skies
Temperature
25°C / 77°F
Dewpoint
12°C / 54°F
Humidity
44%
Altimeter
30.24" Hg
Pressure
1023.92 hPa
Previous

1 hour ago

EPPO 250800Z 10008KT CAVOK 25/13 Q1024
Observed
Aug-25 @ 08:00 UTC
Wind
  • 100° at 8 KTS
Visibility
10,000+ meters
Flight Rules
VFR
Cloud Levels
  • Clear skies
Temperature
25°C / 77°F
Dewpoint
13°C / 55°F
Humidity
47%
Altimeter
30.24" Hg
Pressure
1023.92 hPa